Time;durP1;ratioP1;P1;durP2;ratioP2;P2;SDS_P1;SDS_P2;PMS_P1;PMS_P2;Temp;Humidity;BMP_temperature;BMP_pressure;BME280_temperature;BME280_humidity;BME280_pressure;Samples;Min_cycle;Max_cycle;Signal;HPM_P1;HPM_P2
2023/02/22 00:00:23;;;;;;;24.17;19.17;;;6.00;99.90;;;;;;4959397;29;20347;-80
2023/02/22 00:02:50;;;;;;;23.92;18.30;;;6.00;99.90;;;;;;4958501;29;20051;-78
2023/02/22 00:05:18;;;;;;;22.02;17.15;;;6.10;99.90;;;;;;4958502;28;20374;-81
2023/02/22 00:07:45;;;;;;;22.40;17.40;;;6.10;99.90;;;;;;4959265;29;20127;-80
2023/02/22 00:10:12;;;;;;;23.40;17.13;;;6.10;99.90;;;;;;4958509;29;20377;-80
2023/02/22 00:12:39;;;;;;;21.67;16.65;;;6.10;99.90;;;;;;4958323;28;20047;-78
2023/02/22 00:15:06;;;;;;;21.23;17.08;;;6.10;99.90;;;;;;4958029;29;20054;-79
2023/02/22 00:17:33;;;;;;;22.63;18.50;;;6.10;99.90;;;;;;4958172;28;20470;-81
2023/02/22 00:19:59;;;;;;;23.90;18.40;;;6.20;99.90;;;;;;4959041;29;20039;-78
2023/02/22 00:22:26;;;;;;;24.48;17.48;;;6.30;99.90;;;;;;4958820;29;20050;-79
2023/02/22 00:24:54;;;;;;;22.05;16.98;;;6.30;99.90;;;;;;4942221;29;20040;-80
2023/02/22 00:27:20;;;;;;;22.33;18.38;;;6.30;99.90;;;;;;4955211;29;20071;-79
2023/02/22 00:29:48;;;;;;;22.77;17.30;;;6.30;99.90;;;;;;4939790;29;20039;-78
2023/02/22 00:32:15;;;;;;;23.40;17.70;;;6.30;99.90;;;;;;4938240;29;20075;-78
2023/02/22 00:34:42;;;;;;;26.48;18.58;;;6.30;99.90;;;;;;4941664;29;20111;-79
2023/02/22 00:37:09;;;;;;;24.70;18.77;;;6.40;99.90;;;;;;4941355;29;20150;-77
2023/02/22 00:39:35;;;;;;;24.15;17.90;;;6.40;99.90;;;;;;4940679;29;20367;-79
2023/02/22 00:42:03;;;;;;;25.45;19.23;;;6.50;99.90;;;;;;4939327;29;20048;-78
2023/02/22 00:44:29;;;;;;;28.73;20.13;;;6.50;99.90;;;;;;4952101;29;20048;-80
2023/02/22 00:46:56;;;;;;;23.88;17.33;;;6.60;99.90;;;;;;4953525;28;20048;-78
2023/02/22 00:49:23;;;;;;;23.55;17.90;;;6.60;99.90;;;;;;4939475;29;20043;-79
2023/02/22 00:51:51;;;;;;;29.13;18.33;;;6.60;99.90;;;;;;4953471;29;20048;-78
2023/02/22 00:54:18;;;;;;;26.33;19.98;;;6.60;99.90;;;;;;4938416;29;20043;-80
2023/02/22 00:56:45;;;;;;;24.35;18.08;;;6.60;99.90;;;;;;4954555;29;20070;-81
2023/02/22 00:59:12;;;;;;;25.17;19.00;;;6.60;99.90;;;;;;4953344;29;20058;-80
2023/02/22 01:01:41;;;;;;;26.25;18.85;;;6.70;99.90;;;;;;4953638;28;20055;-78
2023/02/22 01:04:08;;;;;;;23.70;18.20;;;6.70;99.90;;;;;;4938461;29;20065;-77
2023/02/22 01:06:37;;;;;;;24.42;19.40;;;6.70;99.90;;;;;;4954079;29;20058;-78
2023/02/22 01:09:04;;;;;;;25.33;17.92;;;6.60;99.90;;;;;;4937993;29;20103;-77
2023/02/22 01:11:30;;;;;;;23.08;17.23;;;6.50;99.90;;;;;;4953109;29;20047;-77
2023/02/22 01:13:58;;;;;;;24.35;19.48;;;6.50;99.90;;;;;;4954123;29;20058;-80
2023/02/22 01:16:25;;;;;;;25.92;19.52;;;6.40;99.90;;;;;;4954106;29;20048;-80
2023/02/22 01:18:52;;;;;;;27.58;18.73;;;6.40;99.90;;;;;;4953161;29;20154;-80
2023/02/22 01:21:18;;;;;;;24.98;18.88;;;6.40;99.90;;;;;;4953981;28;20103;-80
2023/02/22 01:23:45;;;;;;;26.42;18.52;;;6.40;99.90;;;;;;4944198;29;20051;-78
2023/02/22 01:26:12;;;;;;;26.02;19.50;;;6.40;99.90;;;;;;4957406;29;20374;-78
2023/02/22 01:28:38;;;;;;;31.80;20.83;;;6.40;99.90;;;;;;4958538;28;20410;-80
2023/02/22 01:31:06;;;;;;;25.92;18.75;;;6.50;99.90;;;;;;4955792;29;20043;-80
2023/02/22 01:33:33;;;;;;;26.92;20.83;;;6.50;99.90;;;;;;4956713;29;20162;-77
2023/02/22 01:35:59;;;;;;;26.15;19.70;;;6.60;99.90;;;;;;4956687;29;20035;-79
2023/02/22 01:38:26;;;;;;;30.42;22.23;;;6.60;99.90;;;;;;4956005;29;20039;-80
2023/02/22 01:40:53;;;;;;;26.02;19.77;;;6.60;99.90;;;;;;4956720;29;20066;-80
2023/02/22 01:43:20;;;;;;;26.08;20.95;;;6.60;99.90;;;;;;4957883;28;20423;-78
2023/02/22 01:45:46;;;;;;;29.25;21.38;;;6.70;99.90;;;;;;4955390;29;20051;-80
2023/02/22 01:48:13;;;;;;;25.40;19.10;;;6.70;99.90;;;;;;4957455;29;20094;-78
2023/02/22 01:50:39;;;;;;;24.45;19.58;;;6.80;99.90;;;;;;4955545;29;20051;-78
2023/02/22 01:53:06;;;;;;;24.85;18.85;;;6.70;99.90;;;;;;4940840;29;20061;-79
2023/02/22 01:55:33;;;;;;;27.08;19.50;;;6.70;99.90;;;;;;4940044;29;20414;-77
2023/02/22 01:57:59;;;;;;;26.60;20.48;;;6.70;99.90;;;;;;4955500;29;20428;-79
2023/02/22 02:00:26;;;;;;;26.23;19.67;;;6.70;99.90;;;;;;4956412;29;20048;-79
2023/02/22 02:02:57;;;;;;;30.83;23.60;;;6.70;99.90;;;;;;4957368;28;20095;-79
2023/02/22 02:05:24;;;;;;;32.95;21.67;;;6.70;99.90;;;;;;4939477;29;20110;-80
2023/02/22 02:07:51;;;;;;;27.90;20.98;;;6.70;99.90;;;;;;4957519;29;20050;-78
2023/02/22 02:10:20;;;;;;;30.17;22.63;;;6.70;99.90;;;;;;4956183;28;20469;-79
2023/02/22 02:12:48;;;;;;;27.65;21.75;;;6.70;99.90;;;;;;4954863;28;20093;-78
2023/02/22 02:15:14;;;;;;;32.60;23.27;;;6.70;99.90;;;;;;4956926;29;20125;-78
2023/02/22 02:17:42;;;;;;;31.65;23.92;;;6.80;99.90;;;;;;4955590;28;20047;-78
2023/02/22 02:20:12;;;;;;;27.27;21.42;;;6.80;99.90;;;;;;4955854;29;20054;-79
2023/02/22 02:22:41;;;;;;;31.60;23.73;;;6.80;99.90;;;;;;4957547;28;20088;-80
2023/02/22 02:25:09;;;;;;;29.30;22.48;;;6.90;99.90;;;;;;4935691;29;20043;-80
2023/02/22 02:27:36;;;;;;;30.20;21.52;;;6.90;99.90;;;;;;4936714;29;20052;-78
2023/02/22 02:30:03;;;;;;;31.95;22.83;;;6.90;99.90;;;;;;4936851;29;20055;-78
2023/02/22 02:32:30;;;;;;;28.50;23.83;;;6.90;99.90;;;;;;4936051;29;20063;-77
2023/02/22 02:34:57;;;;;;;34.55;24.95;;;6.90;99.90;;;;;;4936597;29;20067;-80
2023/02/22 02:37:23;;;;;;;34.10;24.25;;;6.90;99.90;;;;;;4936274;29;20047;-77
2023/02/22 02:39:50;;;;;;;30.85;23.10;;;7.00;99.90;;;;;;4920963;29;20538;-79
2023/02/22 02:42:18;;;;;;;32.13;24.20;;;7.00;99.90;;;;;;4937806;29;20074;-77
2023/02/22 02:44:45;;;;;;;32.08;24.15;;;7.00;99.90;;;;;;4936030;29;20055;-79
2023/02/22 02:47:11;;;;;;;30.70;23.98;;;7.00;99.90;;;;;;4936809;29;20051;-79
2023/02/22 02:49:40;;;;;;;32.35;23.40;;;7.00;99.90;;;;;;4937342;29;20039;-80
2023/02/22 02:52:06;;;;;;;30.98;22.98;;;7.00;99.90;;;;;;4919950;29;20047;-77
2023/02/22 02:54:33;;;;;;;33.13;23.50;;;7.10;99.90;;;;;;4936201;29;20079;-77
2023/02/22 02:57:00;;;;;;;31.42;23.27;;;7.10;99.90;;;;;;4936448;29;20485;-80
2023/02/22 02:59:27;;;;;;;33.20;24.70;;;7.00;99.90;;;;;;4936768;29;20044;-78
2023/02/22 03:01:54;;;;;;;36.25;26.50;;;7.00;99.90;;;;;;4937475;29;20036;-78
2023/02/22 03:04:21;;;;;;;35.45;25.02;;;7.00;99.90;;;;;;4936900;29;20063;-79
2023/02/22 03:06:48;;;;;;;33.47;24.55;;;7.00;99.90;;;;;;4920753;29;20359;-77
2023/02/22 03:09:15;;;;;;;34.75;25.65;;;7.00;99.90;;;;;;4937269;29;20050;-80
2023/02/22 03:11:41;;;;;;;36.67;25.35;;;7.00;99.90;;;;;;4936527;29;20082;-77
2023/02/22 03:14:08;;;;;;;36.08;25.73;;;7.00;99.90;;;;;;4937104;29;20039;-77
2023/02/22 03:16:35;;;;;;;35.75;25.67;;;7.10;99.90;;;;;;4920521;29;20071;-77
2023/02/22 03:19:03;;;;;;;31.67;24.33;;;7.10;99.90;;;;;;4935552;29;20048;-77
2023/02/22 03:21:32;;;;;;;36.55;25.63;;;7.10;99.90;;;;;;4920690;29;20114;-76
2023/02/22 03:23:59;;;;;;;32.03;23.23;;;7.10;99.90;;;;;;4946057;28;20062;-78
2023/02/22 03:26:25;;;;;;;38.03;25.75;;;7.10;99.90;;;;;;4959291;28;20061;-77
2023/02/22 03:28:55;;;;;;;32.50;23.23;;;7.10;99.90;;;;;;4959477;29;20050;-78
2023/02/22 03:31:22;;;;;;;35.95;23.33;;;7.10;99.90;;;;;;4958097;29;20059;-79
2023/02/22 03:33:48;;;;;;;35.95;24.02;;;7.10;99.90;;;;;;4958738;29;20470;-78
2023/02/22 03:36:15;;;;;;;39.05;25.48;;;7.10;99.90;;;;;;4960025;28;20094;-80
2023/02/22 03:38:42;;;;;;;34.25;24.55;;;7.10;99.90;;;;;;4959853;28;20102;-79
2023/02/22 03:41:11;;;;;;;33.55;25.20;;;7.10;99.90;;;;;;4959359;29;20364;-78
2023/02/22 03:43:38;;;;;;;37.60;25.40;;;7.10;99.90;;;;;;4959448;29;20374;-78
2023/02/22 03:46:10;;;;;;;38.53;27.65;;;7.00;99.90;;;;;;4958401;29;20055;-81
2023/02/22 03:48:37;;;;;;;37.58;25.95;;;7.00;99.90;;;;;;4959215;29;20142;-79
2023/02/22 03:51:05;;;;;;;36.47;27.23;;;7.00;99.90;;;;;;4957863;29;20047;-78
2023/02/22 03:53:32;;;;;;;38.10;26.85;;;7.00;99.90;;;;;;4958719;29;20047;-79
2023/02/22 03:55:59;;;;;;;39.50;26.77;;;7.00;99.90;;;;;;4958245;29;20051;-78
2023/02/22 03:58:26;;;;;;;36.20;27.77;;;7.00;99.90;;;;;;4957792;29;20133;-79
2023/02/22 04:00:52;;;;;;;39.92;28.65;;;7.00;99.90;;;;;;4958387;29;20039;-79
2023/02/22 04:03:19;;;;;;;40.40;27.17;;;7.00;99.90;;;;;;4959759;29;20045;-80
2023/02/22 04:05:46;;;;;;;40.70;29.80;;;7.00;99.90;;;;;;4957302;29;20043;-80
2023/02/22 04:08:13;;;;;;;38.20;26.92;;;7.00;99.90;;;;;;4958560;28;20055;-79
2023/02/22 04:10:39;;;;;;;42.53;29.27;;;7.00;99.90;;;;;;4957561;29;20043;-78
2023/02/22 04:13:07;;;;;;;41.95;28.38;;;7.00;99.90;;;;;;4959013;29;20098;-77
2023/02/22 04:15:37;;;;;;;35.53;27.92;;;7.10;99.90;;;;;;4958156;29;20370;-78
2023/02/22 04:18:06;;;;;;;41.13;30.15;;;7.00;99.90;;;;;;4941844;29;20399;-77
2023/02/22 04:20:34;;;;;;;35.40;26.85;;;7.00;99.90;;;;;;4958425;29;20097;-78
2023/02/22 04:23:08;;;;;;;42.33;28.77;;;6.90;99.90;;;;;;4956310;29;20510;-77
2023/02/22 04:25:37;;;;;;;42.05;29.23;;;7.00;99.90;;;;;;4937712;29;20047;-80
2023/02/22 04:28:09;;;;;;;45.55;30.52;;;6.90;99.90;;;;;;4954085;29;20040;-80
2023/02/22 04:30:42;;;;;;;38.78;29.73;;;6.90;99.90;;;;;;4937988;29;20079;-79
2023/02/22 04:33:12;;;;;;;44.58;31.52;;;6.90;99.90;;;;;;4939152;29;20471;-78
2023/02/22 04:35:39;;;;;;;43.53;31.48;;;7.00;99.90;;;;;;4937878;29;20063;-80
2023/02/22 04:38:08;;;;;;;43.10;31.38;;;6.90;99.90;;;;;;4937875;29;20489;-78
2023/02/22 04:40:35;;;;;;;47.08;31.95;;;6.90;99.90;;;;;;4939063;29;20051;-80
2023/02/22 04:43:02;;;;;;;41.45;30.58;;;6.90;99.90;;;;;;4938552;29;20522;-79
2023/02/22 04:45:29;;;;;;;45.08;33.00;;;6.90;99.90;;;;;;4937491;29;20411;-78
2023/02/22 04:47:56;;;;;;;42.30;31.48;;;6.90;99.90;;;;;;4938583;29;20103;-79
2023/02/22 04:50:22;;;;;;;41.20;30.85;;;6.80;99.90;;;;;;4938325;29;20119;-78
2023/02/22 04:52:50;;;;;;;43.25;31.20;;;6.80;99.90;;;;;;4938175;29;20442;-80
2023/02/22 04:55:16;;;;;;;41.25;31.90;;;6.90;99.90;;;;;;4954302;29;20048;-78
2023/02/22 04:57:43;;;;;;;46.17;34.17;;;6.90;99.90;;;;;;4937316;29;20051;-77
2023/02/22 05:00:10;;;;;;;43.80;32.67;;;6.90;99.90;;;;;;4954319;29;20158;-80
2023/02/22 05:02:37;;;;;;;44.00;32.63;;;6.90;99.90;;;;;;4938184;29;20063;-79
2023/02/22 05:05:04;;;;;;;44.00;33.85;;;6.90;99.90;;;;;;4938019;29;20558;-79
2023/02/22 05:07:31;;;;;;;47.47;32.60;;;6.80;99.90;;;;;;4939559;29;20048;-78
2023/02/22 05:09:57;;;;;;;44.45;31.85;;;6.80;99.90;;;;;;4938832;29;20451;-80
2023/02/22 05:12:25;;;;;;;44.88;31.92;;;6.90;99.90;;;;;;4938217;29;20047;-76
2023/02/22 05:14:52;;;;;;;49.08;32.40;;;6.90;99.90;;;;;;4938565;29;20055;-78
2023/02/22 05:17:18;;;;;;;41.63;31.77;;;6.90;99.90;;;;;;4937161;29;20451;-79
2023/02/22 05:19:46;;;;;;;47.78;33.40;;;6.90;99.90;;;;;;4939281;29;20043;-80
2023/02/22 05:22:13;;;;;;;46.53;33.10;;;6.80;99.90;;;;;;4938831;29;20461;-78
2023/02/22 05:24:39;;;;;;;45.90;33.88;;;6.80;99.90;;;;;;4952945;29;20048;-79
2023/02/22 05:27:06;;;;;;;52.28;37.10;;;6.80;99.90;;;;;;4937825;29;20367;-79
2023/02/22 05:29:33;;;;;;;44.50;32.45;;;6.80;99.90;;;;;;4952821;28;20059;-78
2023/02/22 05:32:01;;;;;;;46.78;33.35;;;6.80;99.90;;;;;;4956427;29;20039;-78
2023/02/22 05:34:28;;;;;;;52.92;34.30;;;6.80;99.90;;;;;;4957844;28;20359;-77
2023/02/22 05:36:54;;;;;;;45.13;32.45;;;6.80;99.90;;;;;;4957011;29;20070;-80
2023/02/22 05:39:21;;;;;;;50.10;35.45;;;6.90;99.90;;;;;;4956946;29;20043;-79
2023/02/22 05:41:48;;;;;;;47.90;33.92;;;6.80;99.90;;;;;;4957566;28;20062;-79
2023/02/22 05:44:14;;;;;;;48.85;33.55;;;6.80;99.90;;;;;;4956371;29;20047;-78
2023/02/22 05:46:41;;;;;;;46.95;34.58;;;6.90;99.90;;;;;;4956630;28;20042;-80
2023/02/22 05:49:08;;;;;;;47.20;32.78;;;6.90;99.90;;;;;;4957521;28;20047;-78
2023/02/22 05:51:34;;;;;;;48.47;32.83;;;6.90;99.90;;;;;;4956589;29;20043;-80
2023/02/22 05:54:01;;;;;;;49.08;34.13;;;7.00;99.90;;;;;;4957419;29;20048;-78
2023/02/22 05:56:29;;;;;;;40.97;30.30;;;7.00;99.90;;;;;;4957379;28;20497;-78
2023/02/22 05:58:56;;;;;;;46.13;33.25;;;7.00;99.90;;;;;;4956389;29;20043;-78
2023/02/22 06:01:22;;;;;;;44.03;31.58;;;7.00;99.90;;;;;;4957039;29;20606;-79
2023/02/22 06:03:49;;;;;;;41.50;29.00;;;7.00;99.90;;;;;;4956750;28;20046;-78
2023/02/22 06:06:16;;;;;;;45.60;31.83;;;6.90;99.90;;;;;;4957291;28;20058;-80
2023/02/22 06:08:42;;;;;;;47.33;32.90;;;7.00;99.90;;;;;;4957451;29;20355;-80
2023/02/22 06:11:09;;;;;;;43.67;30.70;;;6.90;99.90;;;;;;4956193;29;20047;-77
2023/02/22 06:13:36;;;;;;;44.45;31.23;;;7.00;99.90;;;;;;4957326;29;20053;-80
2023/02/22 06:16:02;;;;;;;44.90;29.80;;;7.00;99.90;;;;;;4956568;29;20063;-81
2023/02/22 06:18:30;;;;;;;43.88;31.02;;;7.00;99.90;;;;;;4956153;29;20523;-80
2023/02/22 06:20:56;;;;;;;43.10;30.02;;;7.00;99.90;;;;;;4957128;28;20046;-80
2023/02/22 06:23:23;;;;;;;44.47;31.75;;;7.00;99.90;;;;;;4956833;29;20047;-79
2023/02/22 06:25:50;;;;;;;45.15;30.77;;;7.00;99.90;;;;;;4955880;28;20126;-77
2023/02/22 06:28:16;;;;;;;48.05;32.40;;;7.00;99.90;;;;;;4956669;29;20051;-77
2023/02/22 06:30:43;;;;;;;45.42;31.42;;;6.90;99.90;;;;;;4955978;28;20074;-80
2023/02/22 06:33:09;;;;;;;43.47;31.25;;;6.90;99.90;;;;;;4956539;28;20131;-79
2023/02/22 06:35:36;;;;;;;45.53;30.85;;;7.00;99.90;;;;;;4956480;29;20043;-79
2023/02/22 06:38:03;;;;;;;42.95;30.55;;;7.00;99.90;;;;;;4957322;29;20122;-78
2023/02/22 06:40:29;;;;;;;43.35;29.83;;;7.00;99.90;;;;;;4958095;28;20043;-79
2023/02/22 06:42:56;;;;;;;41.80;29.38;;;7.00;99.90;;;;;;4956424;29;20043;-78
2023/02/22 06:45:23;;;;;;;41.92;30.40;;;7.10;99.90;;;;;;4955831;29;20054;-80
2023/02/22 06:47:50;;;;;;;42.72;29.60;;;7.00;99.90;;;;;;4956533;29;20426;-80
2023/02/22 06:50:17;;;;;;;44.25;29.83;;;7.00;99.90;;;;;;4956566;29;20043;-79
2023/02/22 06:52:44;;;;;;;43.38;29.92;;;7.00;99.90;;;;;;4955652;29;20043;-80
2023/02/22 06:55:10;;;;;;;43.40;29.48;;;7.00;99.90;;;;;;4956557;28;20130;-80
2023/02/22 06:57:37;;;;;;;44.08;30.92;;;7.10;99.90;;;;;;4955338;29;20387;-78
2023/02/22 07:00:04;;;;;;;43.67;30.00;;;7.10;99.90;;;;;;4959183;28;20047;-78
2023/02/22 07:02:31;;;;;;;40.10;28.33;;;7.10;99.90;;;;;;4959617;29;20051;-80
2023/02/22 07:04:57;;;;;;;47.25;30.08;;;7.00;99.90;;;;;;4958586;29;20434;-79
2023/02/22 07:07:24;;;;;;;42.33;28.25;;;7.00;99.90;;;;;;4960562;29;20098;-78
2023/02/22 07:09:50;;;;;;;40.17;28.63;;;7.00;99.90;;;;;;4960489;28;20067;-79
2023/02/22 07:12:17;;;;;;;42.42;27.48;;;7.00;99.90;;;;;;4959079;29;20102;-80
2023/02/22 07:14:44;;;;;;;38.55;27.55;;;7.00;99.90;;;;;;4958978;29;20359;-79
2023/02/22 07:17:10;;;;;;;41.65;27.70;;;7.10;99.90;;;;;;4959341;29;20050;-79
2023/02/22 07:19:37;;;;;;;40.65;27.63;;;7.10;99.90;;;;;;4959106;29;20050;-78
2023/02/22 07:22:06;;;;;;;40.20;27.25;;;7.10;99.90;;;;;;4951359;28;20051;-78
2023/02/22 07:24:33;;;;;;;41.33;28.35;;;7.10;99.90;;;;;;4949629;29;20044;-78
2023/02/22 07:27:01;;;;;;;41.85;26.83;;;7.10;99.90;;;;;;4959296;28;20054;-79
2023/02/22 07:29:27;;;;;;;45.75;27.90;;;7.10;99.90;;;;;;4951519;28;20052;-81
2023/02/22 07:31:54;;;;;;;39.70;27.13;;;7.10;99.90;;;;;;4958364;29;20040;-80
2023/02/22 07:34:21;;;;;;;40.28;27.40;;;7.10;99.90;;;;;;4958310;29;20043;-78
2023/02/22 07:36:48;;;;;;;43.60;29.35;;;7.20;99.90;;;;;;4959271;29;20043;-77
2023/02/22 07:39:14;;;;;;;41.50;28.27;;;7.20;99.90;;;;;;4951644;28;20036;-81
2023/02/22 07:41:41;;;;;;;43.22;27.30;;;7.20;99.90;;;;;;4943644;28;20039;-81
2023/02/22 07:44:20;;;;;;;38.17;24.42;;;7.20;99.90;;;;;;4976543;28;20050;-78
2023/02/22 07:46:47;;;;;;;40.15;26.65;;;7.20;99.90;;;;;;4977846;28;20062;-80
2023/02/22 07:49:14;;;;;;;38.55;25.58;;;7.30;99.90;;;;;;4977913;28;20055;-79
2023/02/22 07:51:41;;;;;;;41.53;26.83;;;7.30;99.90;;;;;;4976858;28;20413;-81
2023/02/22 07:54:07;;;;;;;35.75;24.48;;;7.30;99.90;;;;;;4977485;28;20051;-79
2023/02/22 07:56:34;;;;;;;39.03;25.35;;;7.30;99.90;;;;;;4978454;28;20050;-82
2023/02/22 07:59:01;;;;;;;37.97;24.88;;;7.30;99.90;;;;;;4977849;28;20039;-78
2023/02/22 08:01:28;;;;;;;40.03;25.85;;;7.40;99.90;;;;;;4978577;28;20049;-77
2023/02/22 08:03:55;;;;;;;37.90;24.80;;;7.40;99.90;;;;;;4977502;28;20046;-80
2023/02/22 08:06:24;;;;;;;36.58;22.90;;;7.40;99.90;;;;;;4978152;28;20350;-76
2023/02/22 08:08:51;;;;;;;34.92;22.33;;;7.40;99.90;;;;;;4977541;28;20105;-79
2023/02/22 08:11:19;;;;;;;35.45;23.85;;;7.50;99.90;;;;;;4975358;28;20043;-79
2023/02/22 08:13:45;;;;;;;35.05;24.17;;;7.50;99.90;;;;;;4978216;28;20058;-79
2023/02/22 08:16:12;;;;;;;35.67;23.15;;;7.50;99.90;;;;;;4978303;28;20467;-80
2023/02/22 08:18:39;;;;;;;33.28;22.27;;;7.50;99.90;;;;;;4976654;28;20047;-80
2023/02/22 08:21:06;;;;;;;30.30;20.13;;;7.50;99.90;;;;;;4977996;28;20083;-78
2023/02/22 08:23:33;;;;;;;31.88;21.23;;;7.60;99.90;;;;;;4972022;28;20123;-80
2023/02/22 08:26:00;;;;;;;32.00;20.23;;;7.60;99.90;;;;;;4958404;28;20047;-77
2023/02/22 08:28:26;;;;;;;30.90;18.77;;;7.70;99.90;;;;;;4958833;29;20098;-81
2023/02/22 08:30:53;;;;;;;29.17;18.52;;;7.70;99.90;;;;;;4958080;29;20066;-80
2023/02/22 08:33:20;;;;;;;29.52;20.13;;;7.70;99.90;;;;;;4957831;28;20462;-81
2023/02/22 08:35:50;;;;;;;31.35;20.60;;;7.70;99.90;;;;;;4958804;28;20121;-81
2023/02/22 08:38:17;;;;;;;27.33;15.85;;;7.70;99.90;;;;;;4957862;29;20126;-78
2023/02/22 08:40:43;;;;;;;26.40;17.38;;;7.70;99.90;;;;;;4962315;28;20103;-79
2023/02/22 08:43:12;;;;;;;22.95;15.65;;;7.70;99.90;;;;;;4978351;28;20366;-79
2023/02/22 08:45:38;;;;;;;26.38;17.38;;;7.70;99.90;;;;;;4976593;28;20144;-80
2023/02/22 08:48:05;;;;;;;23.88;14.65;;;7.70;99.90;;;;;;4977494;28;20125;-79
2023/02/22 08:50:35;;;;;;;24.55;15.27;;;7.70;99.90;;;;;;4977227;28;20065;-79
2023/02/22 08:53:03;;;;;;;24.73;14.15;;;7.70;99.90;;;;;;4977493;28;20529;-78
2023/02/22 08:55:31;;;;;;;20.25;13.25;;;7.70;99.90;;;;;;4976542;28;20105;-80
2023/02/22 08:57:58;;;;;;;18.92;12.52;;;7.80;99.90;;;;;;4976971;28;20066;-79
2023/02/22 09:00:24;;;;;;;18.20;12.30;;;7.80;99.90;;;;;;4977647;28;20035;-77
2023/02/22 09:02:51;;;;;;;18.50;12.32;;;7.80;99.90;;;;;;4977524;28;20134;-78
2023/02/22 09:05:18;;;;;;;18.60;11.82;;;7.80;99.90;;;;;;4976758;28;20113;-79
2023/02/22 09:07:44;;;;;;;19.05;12.23;;;7.90;99.90;;;;;;4977767;28;20055;-78
2023/02/22 09:10:11;;;;;;;17.67;11.90;;;7.90;99.90;;;;;;4977413;28;20414;-78
2023/02/22 09:12:38;;;;;;;18.40;11.82;;;7.90;99.90;;;;;;4975425;28;20496;-80
2023/02/22 09:15:05;;;;;;;17.23;11.50;;;7.90;99.90;;;;;;4977586;28;20046;-80
2023/02/22 09:17:31;;;;;;;16.40;11.43;;;7.90;99.90;;;;;;4976077;28;20043;-79
2023/02/22 09:19:58;;;;;;;14.85;10.27;;;7.90;99.90;;;;;;4977123;28;20493;-80
2023/02/22 09:22:25;;;;;;;16.15;10.63;;;7.90;99.90;;;;;;4977230;28;20121;-80
2023/02/22 09:24:51;;;;;;;16.60;9.10;;;7.90;99.90;;;;;;4959677;28;20458;-79
2023/02/22 09:27:19;;;;;;;11.85;7.47;;;7.90;99.90;;;;;;4958323;29;20035;-78
2023/02/22 09:29:45;;;;;;;10.65;7.75;;;8.00;99.90;;;;;;4957973;28;20043;-79
2023/02/22 09:32:16;;;;;;;10.93;7.72;;;7.90;99.90;;;;;;4942742;28;20057;-83
2023/02/22 09:34:44;;;;;;;11.20;7.05;;;7.90;99.90;;;;;;4967293;28;20042;-79
2023/02/22 09:37:11;;;;;;;10.07;7.28;;;7.90;99.90;;;;;;4974774;28;20049;-79
2023/02/22 09:39:38;;;;;;;10.95;7.55;;;8.00;99.90;;;;;;4976514;28;20476;-79
2023/02/22 09:42:06;;;;;;;11.15;7.72;;;8.00;99.90;;;;;;4959381;28;20036;-79
2023/02/22 09:44:35;;;;;;;13.55;8.00;;;8.00;99.90;;;;;;4956195;29;20051;-78
2023/02/22 09:47:01;;;;;;;13.45;8.45;;;8.10;99.90;;;;;;4957083;29;20062;-77
2023/02/22 09:49:28;;;;;;;12.93;8.73;;;8.10;99.90;;;;;;4956854;29;20047;-79
2023/02/22 09:51:55;;;;;;;14.90;8.68;;;8.20;99.90;;;;;;4955959;29;20481;-78
2023/02/22 09:54:22;;;;;;;12.10;8.52;;;8.20;99.90;;;;;;4955588;29;20126;-77
2023/02/22 09:56:49;;;;;;;13.90;9.10;;;8.20;99.90;;;;;;4956627;29;20347;-79
2023/02/22 09:59:17;;;;;;;13.23;8.63;;;8.30;99.90;;;;;;4956121;28;20114;-78
2023/02/22 10:01:44;;;;;;;12.25;8.18;;;8.40;99.90;;;;;;4956859;29;20054;-78
2023/02/22 10:04:11;;;;;;;13.15;9.10;;;8.40;99.90;;;;;;4955098;29;20042;-81
2023/02/22 10:06:38;;;;;;;14.73;9.32;;;8.50;99.90;;;;;;4956953;29;20422;-78
2023/02/22 10:09:06;;;;;;;14.05;9.90;;;8.60;99.90;;;;;;4956108;29;20043;-78
2023/02/22 10:11:33;;;;;;;16.63;10.05;;;8.60;99.90;;;;;;4955092;28;20051;-78
2023/02/22 10:14:00;;;;;;;14.43;9.73;;;8.60;99.90;;;;;;4956490;29;20486;-79
2023/02/22 10:16:27;;;;;;;13.05;9.40;;;8.70;99.90;;;;;;4956771;29;20047;-79
2023/02/22 10:18:54;;;;;;;14.90;9.35;;;8.70;99.90;;;;;;4955941;28;20106;-78
2023/02/22 10:21:20;;;;;;;16.42;9.93;;;8.70;99.90;;;;;;4956708;28;20090;-79
2023/02/22 10:23:47;;;;;;;14.52;10.35;;;8.70;99.90;;;;;;4955486;29;20047;-78
2023/02/22 10:26:14;;;;;;;15.93;9.80;;;8.60;99.90;;;;;;4956354;29;20059;-77
2023/02/22 10:28:41;;;;;;;15.98;11.05;;;8.60;99.90;;;;;;4956490;29;20122;-80
2023/02/22 10:31:07;;;;;;;15.50;11.15;;;8.60;99.90;;;;;;4955568;29;20083;-80
2023/02/22 10:33:34;;;;;;;20.23;13.23;;;8.60;99.90;;;;;;4955853;28;20043;-79
2023/02/22 10:36:02;;;;;;;14.57;10.73;;;8.60;99.90;;;;;;4946930;28;20043;-81
2023/02/22 10:38:28;;;;;;;16.92;12.48;;;8.60;99.90;;;;;;4954652;28;20047;-79
2023/02/22 10:40:56;;;;;;;15.82;12.48;;;8.70;99.90;;;;;;4955412;29;20051;-80
2023/02/22 10:43:22;;;;;;;23.48;13.82;;;8.70;99.90;;;;;;4955666;28;20043;-79
2023/02/22 10:45:49;;;;;;;20.55;11.85;;;8.70;99.90;;;;;;4954933;29;20054;-81
2023/02/22 10:48:17;;;;;;;18.58;12.60;;;8.70;99.90;;;;;;4955723;28;20043;-79
2023/02/22 10:50:44;;;;;;;18.80;12.70;;;8.70;99.90;;;;;;4942141;28;20043;-82
2023/02/22 10:53:11;;;;;;;19.90;13.38;;;8.70;99.90;;;;;;4956154;28;20047;-78
2023/02/22 10:55:37;;;;;;;20.23;12.50;;;8.70;99.90;;;;;;4952653;28;20051;-81
2023/02/22 10:58:05;;;;;;;16.88;12.57;;;8.70;99.90;;;;;;4950516;29;20063;-80
2023/02/22 11:00:32;;;;;;;17.48;12.80;;;8.70;99.90;;;;;;4954738;29;20058;-81
2023/02/22 11:03:00;;;;;;;16.77;12.80;;;8.70;99.90;;;;;;4956058;28;20098;-80
2023/02/22 11:05:27;;;;;;;19.88;13.57;;;8.70;99.90;;;;;;4953333;28;20382;-77
2023/02/22 11:07:54;;;;;;;22.65;14.95;;;8.70;99.90;;;;;;4932108;28;21249;-78
2023/02/22 11:10:21;;;;;;;21.38;14.82;;;8.80;99.90;;;;;;4956784;28;20043;-79
2023/02/22 11:12:48;;;;;;;24.10;14.65;;;8.90;99.90;;;;;;4951137;29;20039;-81
2023/02/22 11:15:15;;;;;;;21.33;14.15;;;9.00;99.90;;;;;;4958251;28;20035;-80
2023/02/22 11:17:41;;;;;;;21.83;13.98;;;9.00;99.90;;;;;;4960714;28;20461;-80
2023/02/22 11:20:09;;;;;;;21.50;15.35;;;9.10;99.90;;;;;;4947500;28;20032;-80
2023/02/22 11:22:36;;;;;;;18.40;13.82;;;9.20;99.90;;;;;;4955465;28;20039;-78
2023/02/22 11:25:06;;;;;;;19.35;13.35;;;9.30;99.90;;;;;;4947397;28;20043;-79
2023/02/22 11:27:32;;;;;;;20.75;14.85;;;9.40;99.90;;;;;;4957949;28;20055;-80
2023/02/22 11:29:59;;;;;;;19.35;14.18;;;9.50;99.90;;;;;;4946033;29;20048;-78
2023/02/22 11:32:26;;;;;;;19.02;13.55;;;9.60;99.90;;;;;;4957621;29;20079;-77
2023/02/22 11:34:53;;;;;;;20.25;12.95;;;9.60;99.90;;;;;;4957390;29;20143;-79
2023/02/22 11:37:35;;;;;;;15.30;11.82;;;9.60;99.90;;;;;;4939032;29;20083;-78
2023/02/22 11:40:02;;;;;;;17.63;12.23;;;9.60;99.90;;;;;;4954305;29;20031;-81
2023/02/22 11:42:30;;;;;;;18.10;11.73;;;9.40;99.90;;;;;;4959473;28;20050;-79
2023/02/22 11:44:57;;;;;;;16.50;11.18;;;9.40;99.90;;;;;;4942965;28;20055;-80
2023/02/22 11:47:23;;;;;;;18.35;11.35;;;9.50;99.90;;;;;;4942449;29;20055;-79
2023/02/22 11:49:52;;;;;;;19.23;13.00;;;9.40;99.90;;;;;;4971181;28;20046;-79
2023/02/22 11:52:20;;;;;;;15.40;11.43;;;9.50;99.90;;;;;;4958526;28;20058;-82
2023/02/22 11:54:46;;;;;;;14.55;10.82;;;9.40;99.90;;;;;;4964173;28;20402;-81
2023/02/22 11:57:15;;;;;;;18.25;11.43;;;9.40;99.90;;;;;;4966785;28;20513;-85
2023/02/22 11:59:41;;;;;;;16.40;10.73;;;9.40;99.90;;;;;;4965934;28;20378;-83
2023/02/22 12:02:09;;;;;;;17.17;12.05;;;9.40;99.90;;;;;;4965152;28;20050;-83
2023/02/22 12:04:36;;;;;;;15.95;10.45;;;9.50;99.90;;;;;;4965406;28;20047;-81
2023/02/22 12:07:03;;;;;;;18.50;11.30;;;9.50;99.90;;;;;;4967292;28;20046;-80
2023/02/22 12:09:31;;;;;;;17.77;11.75;;;9.60;99.90;;;;;;4967097;28;20076;-79
2023/02/22 12:12:00;;;;;;;16.35;10.05;;;9.60;99.90;;;;;;4967216;28;20054;-82
2023/02/22 12:14:30;;;;;;;19.33;10.73;;;9.50;99.90;;;;;;4954430;28;20051;-80
2023/02/22 12:16:57;;;;;;;15.32;9.77;;;9.40;99.90;;;;;;4958739;29;20039;-80
2023/02/22 12:19:24;;;;;;;13.82;10.10;;;9.50;99.90;;;;;;4957631;28;20047;-80
2023/02/22 12:21:50;;;;;;;15.02;11.57;;;9.50;99.90;;;;;;4958372;28;20046;-80
2023/02/22 12:24:17;;;;;;;14.38;10.07;;;9.50;99.90;;;;;;4956632;29;20043;-80
2023/02/22 12:26:46;;;;;;;17.83;10.45;;;9.40;99.90;;;;;;4956860;29;20059;-80
2023/02/22 12:29:13;;;;;;;13.73;10.35;;;9.40;99.90;;;;;;4957968;28;20070;-79
2023/02/22 12:34:26;;;;;;;12.77;9.73;;;9.30;99.90;;;;;;4957990;28;20102;-80
2023/02/22 12:36:52;;;;;;;16.45;11.30;;;9.30;99.90;;;;;;4957594;29;20447;-80
2023/02/22 12:39:19;;;;;;;15.55;10.13;;;9.30;99.90;;;;;;4957559;29;20050;-78